createdAt,value
2022-07-25T00:01:20.570Z,20.40
2022-07-25T00:03:47.632Z,20.30
2022-07-25T00:06:17.818Z,20.30
2022-07-25T00:08:44.850Z,20.20
2022-07-25T00:11:11.545Z,20.20
2022-07-25T00:13:38.413Z,20.10
2022-07-25T00:16:05.657Z,20.10
2022-07-25T00:18:32.401Z,20.10
2022-07-25T00:20:59.146Z,20.10
2022-07-25T00:23:25.938Z,20.00
2022-07-25T00:25:52.829Z,20.00
2022-07-25T00:28:19.589Z,20.00
2022-07-25T00:30:46.623Z,20.00
2022-07-25T00:33:13.525Z,20.00
2022-07-25T00:35:40.408Z,20.00
2022-07-25T00:38:07.160Z,19.90
2022-07-25T00:40:34.172Z,19.90
2022-07-25T00:43:01.262Z,19.80
2022-07-25T00:45:28.177Z,19.80
2022-07-25T00:47:54.940Z,19.70
2022-07-25T00:50:21.755Z,19.70
2022-07-25T00:52:48.493Z,19.60
2022-07-25T00:55:15.272Z,19.60
2022-07-25T00:57:42.214Z,19.60
2022-07-25T01:00:11.007Z,19.50
2022-07-25T01:02:37.761Z,19.40
2022-07-25T01:05:05.405Z,19.40
2022-07-25T01:07:32.445Z,19.30
2022-07-25T01:09:59.419Z,19.30
2022-07-25T01:12:26.154Z,19.30
2022-07-25T01:14:52.886Z,19.40
2022-07-25T01:17:19.596Z,19.30
2022-07-25T01:19:47.225Z,19.30
2022-07-25T01:22:14.028Z,19.30
2022-07-25T01:24:40.922Z,19.30
2022-07-25T01:27:07.663Z,19.30
2022-07-25T01:29:43.824Z,19.20
2022-07-25T01:32:12.265Z,19.20
2022-07-25T01:34:38.984Z,19.10
2022-07-25T01:37:05.983Z,19.00
2022-07-25T01:39:32.822Z,19.00
2022-07-25T01:41:59.818Z,19.00
2022-07-25T01:44:26.604Z,19.00
2022-07-25T01:46:53.314Z,19.00
2022-07-25T01:49:20.236Z,19.00
2022-07-25T01:51:47.012Z,18.90
2022-07-25T01:54:15.048Z,18.90
2022-07-25T01:56:46.888Z,18.90
2022-07-25T01:59:13.913Z,18.90
2022-07-25T02:01:40.762Z,18.90
2022-07-25T02:04:07.988Z,18.80
2022-07-25T02:06:35.269Z,18.80
2022-07-25T02:09:02.815Z,18.70
2022-07-25T02:11:29.581Z,18.70
2022-07-25T02:13:56.366Z,18.70
2022-07-25T02:16:29.045Z,18.60
2022-07-25T02:18:56.332Z,18.60
2022-07-25T02:21:23.198Z,18.50
2022-07-25T02:23:50.076Z,18.50
2022-07-25T02:26:16.889Z,18.50
2022-07-25T02:28:43.604Z,18.60
2022-07-25T02:31:10.368Z,18.50
2022-07-25T02:33:37.241Z,18.50
2022-07-25T02:36:04.100Z,18.40
2022-07-25T02:38:30.814Z,18.40
2022-07-25T02:40:57.539Z,18.40
2022-07-25T02:43:24.503Z,18.40
2022-07-25T02:45:51.483Z,18.30
2022-07-25T02:48:18.326Z,18.30
2022-07-25T02:50:45.161Z,18.20
2022-07-25T02:53:11.992Z,18.20
2022-07-25T02:55:38.741Z,18.20
2022-07-25T02:58:05.611Z,18.20
2022-07-25T03:00:32.441Z,18.10
2022-07-25T03:02:59.289Z,18.20
2022-07-25T03:05:26.067Z,18.10
2022-07-25T03:07:52.972Z,18.10
2022-07-25T03:10:19.749Z,18.00
2022-07-25T03:12:46.541Z,18.00
2022-07-25T03:15:13.440Z,18.00
2022-07-25T03:17:40.437Z,17.90
2022-07-25T03:20:07.945Z,18.00
2022-07-25T03:22:35.116Z,17.90
2022-07-25T03:25:01.995Z,17.90
2022-07-25T03:27:28.746Z,17.90
2022-07-25T03:29:55.526Z,18.00
2022-07-25T03:32:23.304Z,18.00
2022-07-25T03:34:50.056Z,17.90
2022-07-25T03:37:16.797Z,17.80
2022-07-25T03:39:43.618Z,17.70
2022-07-25T03:42:11.771Z,17.70
2022-07-25T03:44:38.471Z,17.60
2022-07-25T03:47:05.830Z,17.60
2022-07-25T03:49:32.605Z,17.60
2022-07-25T03:51:59.765Z,17.70
2022-07-25T03:54:26.517Z,17.60
2022-07-25T03:56:53.579Z,17.60
2022-07-25T03:59:21.063Z,17.60
2022-07-25T04:01:49.046Z,17.60
2022-07-25T04:04:16.251Z,17.50
2022-07-25T04:06:43.088Z,17.50
2022-07-25T04:09:10.110Z,17.50
2022-07-25T04:11:38.374Z,17.50
2022-07-25T04:14:05.826Z,17.60
2022-07-25T04:16:32.853Z,17.60
2022-07-25T04:19:01.174Z,17.70
2022-07-25T04:21:28.453Z,17.70
2022-07-25T04:23:55.198Z,17.70
2022-07-25T04:26:21.972Z,17.80
2022-07-25T04:28:48.746Z,17.90
2022-07-25T04:31:15.624Z,18.20
2022-07-25T04:33:42.521Z,18.40
2022-07-25T04:36:09.355Z,18.60
2022-07-25T04:38:36.201Z,18.70
2022-07-25T04:41:03.964Z,19.00
2022-07-25T04:43:30.726Z,19.20
2022-07-25T04:45:57.580Z,19.50
2022-07-25T04:48:24.375Z,19.70
2022-07-25T04:50:51.208Z,20.00
2022-07-25T04:53:17.990Z,20.20
2022-07-25T04:55:44.854Z,20.50
2022-07-25T04:58:11.573Z,20.70
2022-07-25T05:00:38.400Z,20.90
2022-07-25T05:03:05.207Z,21.20
2022-07-25T05:05:31.977Z,21.50
2022-07-25T05:07:59.369Z,21.80
2022-07-25T05:10:27.518Z,22.10
2022-07-25T05:12:54.286Z,22.30
2022-07-25T05:15:21.201Z,22.50
2022-07-25T05:17:48.408Z,22.70
2022-07-25T05:20:15.214Z,22.90
2022-07-25T05:22:42.423Z,23.20
2022-07-25T05:25:10.665Z,23.40
2022-07-25T05:27:37.654Z,23.60
2022-07-25T05:30:07.070Z,23.90
2022-07-25T05:32:33.845Z,24.30
2022-07-25T05:35:00.601Z,24.60
2022-07-25T05:37:27.356Z,24.90
2022-07-25T05:39:54.056Z,25.10
2022-07-25T05:42:20.961Z,25.30
2022-07-25T05:44:47.704Z,25.50
2022-07-25T05:47:14.458Z,25.60
2022-07-25T05:49:41.221Z,26.00
2022-07-25T05:52:12.599Z,26.10
2022-07-25T05:54:39.790Z,26.20
2022-07-25T05:57:06.509Z,26.30
2022-07-25T05:59:33.394Z,26.40
2022-07-25T06:02:01.908Z,26.50
2022-07-25T06:04:28.962Z,26.50
2022-07-25T06:06:55.865Z,26.60
2022-07-25T06:09:22.718Z,26.60
2022-07-25T06:11:59.889Z,26.50
2022-07-25T06:14:28.405Z,26.40
2022-07-25T06:16:55.447Z,26.30
2022-07-25T06:19:22.266Z,26.30
2022-07-25T06:21:49.098Z,26.10
2022-07-25T06:24:15.887Z,26.20
2022-07-25T06:26:42.859Z,26.30
2022-07-25T06:29:09.792Z,26.40
2022-07-25T06:31:36.613Z,26.50
2022-07-25T06:34:03.942Z,26.50
2022-07-25T06:36:32.274Z,26.60
2022-07-25T06:38:59.834Z,26.60
2022-07-25T06:41:26.572Z,26.80
2022-07-25T06:43:53.465Z,26.80
2022-07-25T06:46:20.456Z,26.80
2022-07-25T06:48:47.367Z,26.80
2022-07-25T06:51:14.168Z,26.90
2022-07-25T06:53:40.964Z,27.00
2022-07-25T06:56:07.928Z,27.00
2022-07-25T06:58:34.692Z,26.90
2022-07-25T07:01:01.623Z,27.00
2022-07-25T07:03:28.465Z,27.00
2022-07-25T07:05:55.501Z,27.10
2022-07-25T07:08:22.308Z,27.30
2022-07-25T07:10:49.081Z,27.20
2022-07-25T07:13:23.927Z,27.20
2022-07-25T07:15:51.519Z,27.30
2022-07-25T07:18:18.920Z,27.30
2022-07-25T07:20:45.868Z,27.40
2022-07-25T07:23:16.673Z,27.50
2022-07-25T07:25:46.157Z,27.70
2022-07-25T07:28:13.437Z,27.70
2022-07-25T07:31:13.357Z,27.80
2022-07-25T07:33:26.919Z,27.80
2022-07-25T07:35:55.929Z,27.90
2022-07-25T07:38:23.913Z,27.90
2022-07-25T07:40:50.809Z,27.90
2022-07-25T07:43:17.500Z,28.10
2022-07-25T07:45:44.339Z,28.20
2022-07-25T07:48:11.117Z,28.20
2022-07-25T07:50:38.289Z,28.30
2022-07-25T07:53:06.701Z,28.30
2022-07-25T07:55:46.502Z,28.40
2022-07-25T07:58:17.431Z,28.30
2022-07-25T08:00:45.570Z,28.30
2022-07-25T08:03:12.380Z,28.30
2022-07-25T08:05:43.399Z,28.40
2022-07-25T08:08:13.218Z,28.40
2022-07-25T08:10:41.573Z,28.60
2022-07-25T08:13:16.202Z,28.60
2022-07-25T08:15:43.808Z,28.60
2022-07-25T08:18:16.874Z,28.70
2022-07-25T08:20:45.003Z,28.40
2022-07-25T08:23:11.779Z,28.40
2022-07-25T08:25:39.005Z,28.50
2022-07-25T08:28:06.555Z,28.70
2022-07-25T08:30:34.127Z,28.80
2022-07-25T08:33:03.527Z,29.00
2022-07-25T08:35:30.390Z,29.00
2022-07-25T08:37:57.305Z,29.10
2022-07-25T08:40:25.672Z,29.20
2022-07-25T08:42:52.620Z,29.30
2022-07-25T08:45:20.377Z,29.40
2022-07-25T08:47:47.968Z,29.50
2022-07-25T08:50:16.581Z,29.60
2022-07-25T08:52:43.908Z,29.70
2022-07-25T08:55:13.465Z,29.80
2022-07-25T08:57:43.627Z,29.80
2022-07-25T09:00:14.450Z,29.90
2022-07-25T09:02:41.302Z,29.90
2022-07-25T09:05:08.766Z,29.90
2022-07-25T09:07:37.514Z,29.90
2022-07-25T09:10:16.345Z,30.00
2022-07-25T09:12:51.042Z,30.20
2022-07-25T09:15:27.732Z,30.20
2022-07-25T09:17:57.603Z,30.20
2022-07-25T09:20:24.617Z,30.20
2022-07-25T09:22:51.422Z,30.30
2022-07-25T09:25:25.750Z,30.40
2022-07-25T09:27:52.544Z,30.40
2022-07-25T09:30:19.600Z,30.30
2022-07-25T09:32:46.388Z,30.30
2022-07-25T09:35:13.159Z,30.30
2022-07-25T09:37:39.951Z,30.40
2022-07-25T09:40:15.353Z,30.50
2022-07-25T09:42:42.896Z,30.60
2022-07-25T09:45:15.779Z,30.70
2022-07-25T09:47:59.410Z,30.80
2022-07-25T09:50:27.167Z,30.80
2022-07-25T09:52:55.547Z,30.90
2022-07-25T09:55:22.542Z,30.90
2022-07-25T09:57:49.829Z,30.90
2022-07-25T10:00:20.461Z,30.90
2022-07-25T10:03:01.759Z,31.00
2022-07-25T10:05:41.550Z,31.00
2022-07-25T10:08:08.913Z,31.10
2022-07-25T10:10:41.107Z,31.10
2022-07-25T10:13:18.137Z,31.20
2022-07-25T10:15:52.350Z,31.30
2022-07-25T10:18:21.110Z,31.40
2022-07-25T10:20:49.224Z,31.40
2022-07-25T10:23:27.079Z,31.50
2022-07-25T10:26:20.296Z,31.50
2022-07-25T10:28:48.022Z,31.50
2022-07-25T10:31:36.125Z,31.50
2022-07-25T10:34:05.837Z,31.70
2022-07-25T10:36:45.251Z,31.80
2022-07-25T10:39:13.401Z,31.80
2022-07-25T10:41:41.453Z,31.90
2022-07-25T10:44:15.362Z,32.00
2022-07-25T10:46:45.942Z,32.00
2022-07-25T10:49:32.184Z,32.00
2022-07-25T10:52:03.715Z,32.10
2022-07-25T10:54:59.990Z,32.10
2022-07-25T10:57:31.516Z,32.20
2022-07-25T11:00:08.505Z,32.30
2022-07-25T11:02:35.243Z,32.40
2022-07-25T11:05:03.102Z,32.40
2022-07-25T11:07:36.198Z,32.50
2022-07-25T11:10:04.826Z,32.60
2022-07-25T11:12:31.777Z,32.70
2022-07-25T11:15:03.199Z,32.70
2022-07-25T11:17:30.240Z,32.80
2022-07-25T11:20:00.555Z,32.90
2022-07-25T11:22:28.114Z,32.90
2022-07-25T11:24:55.104Z,32.90
2022-07-25T11:27:30.549Z,32.90
2022-07-25T11:30:29.823Z,33.00
2022-07-25T11:32:58.350Z,33.00
2022-07-25T11:35:32.148Z,33.00
2022-07-25T11:38:01.555Z,33.00
2022-07-25T11:40:28.803Z,33.10
2022-07-25T11:42:57.442Z,33.00
2022-07-25T11:45:26.018Z,33.00
2022-07-25T11:48:11.431Z,33.20
2022-07-25T11:50:43.583Z,33.20
2022-07-25T11:53:11.645Z,33.20
2022-07-25T11:55:42.558Z,33.10
2022-07-25T11:58:09.982Z,33.00
2022-07-25T12:00:40.386Z,33.10
2022-07-25T12:03:18.936Z,33.20
2022-07-25T12:05:46.103Z,33.20
2022-07-25T12:08:13.500Z,33.30
2022-07-25T12:10:40.461Z,33.40
2022-07-25T12:13:08.732Z,33.40
2022-07-25T12:15:39.967Z,33.50
2022-07-25T12:18:09.352Z,33.40
2022-07-25T12:20:42.565Z,33.40
2022-07-25T12:23:11.150Z,33.40
2022-07-25T12:25:39.032Z,33.50
2022-07-25T12:28:06.443Z,33.60
2022-07-25T12:30:34.211Z,33.60
2022-07-25T12:33:01.400Z,33.60
2022-07-25T12:35:28.348Z,33.60
2022-07-25T12:37:55.161Z,33.70
2022-07-25T12:40:22.375Z,33.70
2022-07-25T12:42:49.289Z,33.70
2022-07-25T12:45:17.743Z,33.70
2022-07-25T12:47:45.190Z,33.60
2022-07-25T12:50:12.313Z,33.60
2022-07-25T12:52:39.245Z,33.60
2022-07-25T12:55:10.642Z,33.70
2022-07-25T12:57:37.536Z,33.70
2022-07-25T13:00:05.921Z,33.70
2022-07-25T13:02:32.733Z,33.80
2022-07-25T13:04:59.768Z,33.80
2022-07-25T13:07:26.523Z,33.80
2022-07-25T13:09:53.254Z,33.80
2022-07-25T13:12:20.770Z,33.90
2022-07-25T13:14:48.029Z,33.90
2022-07-25T13:17:14.783Z,33.90
2022-07-25T13:19:41.887Z,33.90
2022-07-25T13:22:08.729Z,34.00
2022-07-25T13:24:35.533Z,34.00
2022-07-25T13:27:08.408Z,34.00
2022-07-25T13:29:35.161Z,34.00
2022-07-25T13:32:02.211Z,34.00
2022-07-25T13:34:29.062Z,34.00
2022-07-25T13:36:55.830Z,34.00
2022-07-25T13:39:22.645Z,34.00
2022-07-25T13:41:49.742Z,34.10
2022-07-25T13:44:16.600Z,34.00
2022-07-25T13:46:46.221Z,34.00
2022-07-25T13:49:13.311Z,34.10
2022-07-25T13:51:40.107Z,34.10
2022-07-25T13:54:07.140Z,34.10
2022-07-25T13:56:34.217Z,34.10
2022-07-25T13:59:02.464Z,34.10
2022-07-25T14:01:29.278Z,34.10
2022-07-25T14:03:56.280Z,34.10
2022-07-25T14:06:23.024Z,34.10
2022-07-25T14:08:49.978Z,34.20
2022-07-25T14:11:16.739Z,34.20
2022-07-25T14:13:44.414Z,34.20
2022-07-25T14:16:11.470Z,34.20
2022-07-25T14:18:38.239Z,34.20
2022-07-25T14:21:05.130Z,34.20
2022-07-25T14:23:31.928Z,34.20
2022-07-25T14:25:59.249Z,34.20
2022-07-25T14:28:26.248Z,34.20
2022-07-25T14:30:53.018Z,34.20
2022-07-25T14:33:19.765Z,34.30
2022-07-25T14:35:46.519Z,34.30
2022-07-25T14:38:13.242Z,34.30
2022-07-25T14:40:42.069Z,34.40
2022-07-25T14:43:08.876Z,34.40
2022-07-25T14:45:37.079Z,34.40
2022-07-25T14:48:06.242Z,34.20
2022-07-25T14:50:32.996Z,34.10
2022-07-25T14:52:59.774Z,34.10
2022-07-25T14:55:26.989Z,34.00
2022-07-25T14:57:53.754Z,33.90
2022-07-25T15:00:22.048Z,33.90
2022-07-25T15:02:50.513Z,33.70
2022-07-25T15:05:17.467Z,33.60
2022-07-25T15:07:44.676Z,33.60
2022-07-25T15:10:11.932Z,33.60
2022-07-25T15:12:38.742Z,33.60
2022-07-25T15:15:06.615Z,33.60
2022-07-25T15:17:33.753Z,33.60
2022-07-25T15:20:00.978Z,33.50
2022-07-25T15:22:27.845Z,33.50
2022-07-25T15:27:41.549Z,33.80
2022-07-25T15:30:08.904Z,33.80
2022-07-25T15:32:35.819Z,33.80
2022-07-25T15:35:02.582Z,33.80
2022-07-25T15:37:29.887Z,33.80
2022-07-25T15:39:56.655Z,33.80
2022-07-25T15:42:28.550Z,33.70
2022-07-25T15:45:15.251Z,33.60
2022-07-25T15:47:45.160Z,33.60
2022-07-25T15:50:15.725Z,33.60
2022-07-25T15:52:42.504Z,33.60
2022-07-25T15:55:09.468Z,33.60
2022-07-25T15:57:36.723Z,33.60
2022-07-25T16:00:05.813Z,33.60
2022-07-25T16:02:32.632Z,33.80
2022-07-25T16:04:59.741Z,33.80
2022-07-25T16:07:26.613Z,33.80
2022-07-25T16:09:55.391Z,33.90
2022-07-25T16:12:28.273Z,33.90
2022-07-25T16:14:55.530Z,33.80
2022-07-25T16:17:22.336Z,33.80
2022-07-25T16:19:49.131Z,33.90
2022-07-25T16:22:15.873Z,34.00
2022-07-25T16:24:43.457Z,34.00
2022-07-25T16:27:10.227Z,34.10
2022-07-25T16:29:37.377Z,34.10
2022-07-25T16:32:04.697Z,34.20
2022-07-25T16:34:31.792Z,34.20
2022-07-25T16:36:58.583Z,34.00
2022-07-25T16:39:25.355Z,34.00
2022-07-25T16:41:52.225Z,34.00
2022-07-25T16:44:19.033Z,34.00
2022-07-25T16:46:46.180Z,34.00
2022-07-25T16:49:15.371Z,34.10
2022-07-25T16:51:43.046Z,34.00
2022-07-25T16:54:09.881Z,34.10
2022-07-25T16:56:37.178Z,34.10
2022-07-25T16:59:08.012Z,34.10
2022-07-25T17:01:35.324Z,34.20
2022-07-25T17:04:02.523Z,34.20
2022-07-25T17:06:29.395Z,34.20
2022-07-25T17:08:56.125Z,34.10
2022-07-25T17:11:23.069Z,34.10
2022-07-25T17:13:49.860Z,34.00
2022-07-25T17:16:16.762Z,33.90
2022-07-25T17:18:43.593Z,33.80
2022-07-25T17:21:10.663Z,33.70
2022-07-25T17:23:37.445Z,33.70
2022-07-25T17:26:05.305Z,33.60
2022-07-25T17:28:32.245Z,33.40
2022-07-25T17:30:58.998Z,33.30
2022-07-25T17:33:25.827Z,33.20
2022-07-25T17:35:52.752Z,33.00
2022-07-25T17:38:25.344Z,32.80
2022-07-25T17:40:52.714Z,32.70
2022-07-25T17:43:19.742Z,32.60
2022-07-25T17:45:46.514Z,32.50
2022-07-25T17:48:13.314Z,32.30
2022-07-25T17:50:40.218Z,32.20
2022-07-25T17:53:07.060Z,32.00
2022-07-25T17:55:38.470Z,31.90
2022-07-25T17:58:05.861Z,31.80
2022-07-25T18:00:32.650Z,31.60
2022-07-25T18:02:59.629Z,31.50
2022-07-25T18:05:26.936Z,31.40
2022-07-25T18:07:55.504Z,31.30
2022-07-25T18:10:22.364Z,31.20
2022-07-25T18:12:49.497Z,31.00
2022-07-25T18:15:16.474Z,30.90
2022-07-25T18:17:47.255Z,30.80
2022-07-25T18:20:14.893Z,30.60
2022-07-25T18:22:42.238Z,30.50
2022-07-25T18:25:13.130Z,30.40
2022-07-25T18:27:44.067Z,30.20
2022-07-25T18:30:11.734Z,30.10
2022-07-25T18:32:38.809Z,30.10
2022-07-25T18:35:05.978Z,29.90
2022-07-25T18:37:32.770Z,29.90
2022-07-25T18:39:59.547Z,29.90
2022-07-25T18:42:29.759Z,29.80
2022-07-25T18:44:57.143Z,29.60
2022-07-25T18:47:26.122Z,29.60
2022-07-25T18:49:57.190Z,29.50
2022-07-25T18:52:24.608Z,29.40
2022-07-25T18:54:51.433Z,29.30
2022-07-25T18:57:18.337Z,29.20
2022-07-25T18:59:45.746Z,29.10
2022-07-25T19:02:12.673Z,28.90
2022-07-25T19:04:39.461Z,28.90
2022-07-25T19:07:07.073Z,28.80
2022-07-25T19:09:33.954Z,28.80
2022-07-25T19:12:01.282Z,28.60
2022-07-25T19:14:28.825Z,28.60
2022-07-25T19:16:55.666Z,28.50
2022-07-25T19:19:22.417Z,28.50
2022-07-25T19:21:49.449Z,28.50
2022-07-25T19:24:16.316Z,28.40
2022-07-25T19:26:43.316Z,28.40
2022-07-25T19:29:16.461Z,28.30
2022-07-25T19:31:43.325Z,28.20
2022-07-25T19:34:10.661Z,28.30
2022-07-25T19:36:37.934Z,28.20
2022-07-25T19:39:06.099Z,28.20
2022-07-25T19:41:33.010Z,28.10
2022-07-25T19:43:59.847Z,28.10
2022-07-25T19:46:31.389Z,28.10
2022-07-25T19:48:58.426Z,28.00
2022-07-25T19:51:25.416Z,27.90
2022-07-25T19:53:52.201Z,27.80
2022-07-25T19:56:19.037Z,27.70
2022-07-25T19:58:45.958Z,27.60
2022-07-25T20:01:13.118Z,27.60
2022-07-25T20:03:40.297Z,27.60
2022-07-25T20:06:08.613Z,27.50
2022-07-25T20:08:36.563Z,27.40
2022-07-25T20:11:03.452Z,27.30
2022-07-25T20:13:30.214Z,27.30
2022-07-25T20:15:58.586Z,27.30
2022-07-25T20:18:25.325Z,27.40
2022-07-25T20:20:52.057Z,27.20
2022-07-25T20:23:18.826Z,27.10
2022-07-25T20:25:45.560Z,27.00
2022-07-25T20:28:12.474Z,27.00
2022-07-25T20:30:39.418Z,26.90
2022-07-25T20:33:08.061Z,26.80
2022-07-25T20:35:36.539Z,26.80
2022-07-25T20:38:03.432Z,26.80
2022-07-25T20:40:35.825Z,26.70
2022-07-25T20:43:04.066Z,26.70
2022-07-25T20:45:30.831Z,26.60
2022-07-25T20:47:57.731Z,26.50
2022-07-25T20:50:24.734Z,26.40
2022-07-25T20:52:51.846Z,26.20
2022-07-25T20:55:18.650Z,26.00
2022-07-25T20:57:50.327Z,25.80
2022-07-25T21:00:17.543Z,25.70
2022-07-25T21:02:44.315Z,25.40
2022-07-25T21:05:11.162Z,25.10
2022-07-25T21:07:37.919Z,25.10
2022-07-25T21:10:05.137Z,24.90
2022-07-25T21:12:32.923Z,24.80
2022-07-25T21:15:01.330Z,24.70
2022-07-25T21:17:28.263Z,24.60
2022-07-25T21:19:55.088Z,24.50
2022-07-25T21:22:21.930Z,24.50
2022-07-25T21:24:49.562Z,24.30
2022-07-25T21:27:17.111Z,24.30
2022-07-25T21:29:43.899Z,24.20
2022-07-25T21:32:13.530Z,24.10
2022-07-25T21:34:41.244Z,24.10
2022-07-25T21:37:08.057Z,24.10
2022-07-25T21:39:34.824Z,24.10
2022-07-25T21:42:01.750Z,24.10
2022-07-25T21:44:28.542Z,24.00
2022-07-25T21:46:55.335Z,23.90
2022-07-25T21:49:41.030Z,23.90
2022-07-25T21:52:08.938Z,23.90
2022-07-25T21:54:43.667Z,23.80
2022-07-25T21:57:13.427Z,23.70
2022-07-25T21:59:44.103Z,23.80
2022-07-25T22:02:10.917Z,23.80
2022-07-25T22:04:37.697Z,23.80
2022-07-25T22:07:04.643Z,23.80
2022-07-25T22:09:31.451Z,23.80
2022-07-25T22:11:58.217Z,23.80
2022-07-25T22:14:25.125Z,23.70
2022-07-25T22:16:51.929Z,23.70
2022-07-25T22:19:22.170Z,23.60
2022-07-25T22:21:49.768Z,23.60
2022-07-25T22:24:16.597Z,23.60
2022-07-25T22:26:43.363Z,23.60
2022-07-25T22:29:10.733Z,23.60
2022-07-25T22:31:39.147Z,23.50
2022-07-25T22:34:06.320Z,23.40
2022-07-25T22:36:33.118Z,23.40
2022-07-25T22:38:59.946Z,23.40
2022-07-25T22:41:26.680Z,23.40
2022-07-25T22:43:59.147Z,23.40
2022-07-25T22:46:28.033Z,23.40
2022-07-25T22:48:55.121Z,23.40
2022-07-25T22:51:22.291Z,23.40
2022-07-25T22:53:49.102Z,23.40
2022-07-25T22:56:16.933Z,23.30
2022-07-25T22:58:43.800Z,23.30
2022-07-25T23:01:12.645Z,23.30
2022-07-25T23:03:39.435Z,23.30
2022-07-25T23:06:06.387Z,23.30
2022-07-25T23:08:33.118Z,23.30
2022-07-25T23:11:00.125Z,23.30
2022-07-25T23:13:26.816Z,23.20
2022-07-25T23:15:53.637Z,23.10
2022-07-25T23:18:21.080Z,22.90
2022-07-25T23:20:47.918Z,22.80
2022-07-25T23:23:14.897Z,22.70
2022-07-25T23:25:41.660Z,22.70
2022-07-25T23:28:08.506Z,22.60
2022-07-25T23:30:40.041Z,22.60
2022-07-25T23:33:07.528Z,22.40
2022-07-25T23:35:34.620Z,22.30
2022-07-25T23:38:01.463Z,22.10
2022-07-25T23:40:28.242Z,22.00
2022-07-25T23:42:55.049Z,21.90
2022-07-25T23:45:25.488Z,21.80
2022-07-25T23:47:56.080Z,21.90
2022-07-25T23:50:23.225Z,21.90
2022-07-25T23:52:50.239Z,21.90
2022-07-25T23:55:16.988Z,21.90
2022-07-25T23:57:43.820Z,21.90
